CYZS

Details ICAO CYZS
Name CORAL HARBOUR
Region Canada
Timezone America/Coral_Harbour (UTC-5.0)
Plans Departing 9
Arriving 9
Stats Elevation 210 ft / 64 m (AMSL)
Location 64.193333° -83.359446°
Runways 1
Magnetic Variation 18.856° W
Sunrise 2017-12-17 15:27:03 UTC / 2017-12-17 10:27:03 Local
Sunset 2017-12-17 19:35:02 UTC / 2017-12-17 14:35:02 Local
Advertisement - Login to hide

Runways

ID Width Length Bearing (true) Bearing (mag) Surface Threshold Offset Overrun Length
16T 100 ft / 30 m 4,987 ft / 1,520 m 155.02° 173.88° Gravel 0 ft / 0 m 0 ft / 0 m
34T 100 ft / 30 m 4,987 ft / 1,520 m 335.03° 353.89° Gravel 0 ft / 0 m 0 ft / 0 m

Map

Weather


0- 5 10 15 20 25 30 35+ Temperature / ° C

Clouds and Precipitation
Forecast for 2017-12-18 00:00 UTC. Updated 27 minutes ago

Ground ~20,000 ft ~40,000 ft Winds

METAR

CYZS 172100Z 23006KT 200V280 15SM BKN060 OVC090 M25/M28 A2955 RMK SC5AC3 SLP018

TAF

TAF CYZS 171838Z 1719/1807 32010KT P6SM BKN080 FM180200 33007KT P6SM BKN030 RMK NXT FCST BY 180100Z

Frequencies

Unicom 122.10 MHz MANDATORY FREQ
Tower 133.70 MHz EDMONTON CENTRE
Warning: Do not use this data for real-world aviation or navigation. No guarantee of current accuracy is given.